createdAt,value
2023-05-22T00:01:49.361Z,2.40
2023-05-22T00:05:21.581Z,2.10
2023-05-22T00:08:53.590Z,1.60
2023-05-22T00:12:25.706Z,2.30
2023-05-22T00:15:57.688Z,1.85
2023-05-22T00:19:30.464Z,1.85
2023-05-22T00:23:03.199Z,2.30
2023-05-22T00:26:35.068Z,2.00
2023-05-22T00:30:09.622Z,2.50
2023-05-22T00:33:41.582Z,2.25
2023-05-22T00:37:13.601Z,2.37
2023-05-22T00:40:45.358Z,2.00
2023-05-22T00:44:17.530Z,2.42
2023-05-22T00:47:49.724Z,2.08
2023-05-22T00:51:22.563Z,2.33
2023-05-22T00:54:54.804Z,3.03
2023-05-22T00:58:27.412Z,3.05
2023-05-22T01:01:59.985Z,2.33
2023-05-22T01:05:31.703Z,2.30
2023-05-22T01:09:04.595Z,2.17
2023-05-22T01:12:57.802Z,2.88
2023-05-22T01:16:54.835Z,2.85
2023-05-22T01:20:42.704Z,2.72
2023-05-22T01:24:25.658Z,2.47
2023-05-22T01:28:06.530Z,2.85
2023-05-22T01:31:43.865Z,2.33
2023-05-22T01:35:18.911Z,2.20
2023-05-22T01:38:51.902Z,2.27
2023-05-22T01:42:24.667Z,2.45
2023-05-22T01:45:56.695Z,2.70
2023-05-22T01:49:29.040Z,2.40
2023-05-22T01:53:11.655Z,2.50
2023-05-22T01:57:07.675Z,2.42
2023-05-22T02:00:41.707Z,2.85
2023-05-22T02:04:14.699Z,2.73
2023-05-22T02:07:48.292Z,2.50
2023-05-22T02:11:22.805Z,2.65
2023-05-22T02:14:55.521Z,2.83
2023-05-22T02:18:29.623Z,2.35
2023-05-22T02:22:02.203Z,2.43
2023-05-22T02:25:34.090Z,2.33
2023-05-22T02:29:06.456Z,2.53
2023-05-22T02:32:39.403Z,2.50
2023-05-22T02:36:13.161Z,1.90
2023-05-22T02:39:45.319Z,2.63
2023-05-22T02:43:17.089Z,2.63
2023-05-22T02:46:49.311Z,3.10
2023-05-22T02:50:21.229Z,2.60
2023-05-22T02:53:53.376Z,2.50
2023-05-22T02:57:25.287Z,2.80
2023-05-22T03:00:57.519Z,2.63
2023-05-22T03:04:29.627Z,2.90
2023-05-22T03:08:01.860Z,2.58
2023-05-22T03:11:34.336Z,3.03
2023-05-22T03:15:06.688Z,2.67
2023-05-22T03:18:38.770Z,2.40
2023-05-22T03:22:10.652Z,2.88
2023-05-22T03:25:42.758Z,2.95
2023-05-22T03:29:14.671Z,2.88
2023-05-22T03:32:46.844Z,2.73
2023-05-22T03:36:20.124Z,3.08
2023-05-22T03:39:52.122Z,2.75
2023-05-22T03:43:24.269Z,3.10
2023-05-22T03:46:56.291Z,2.87
2023-05-22T03:50:28.288Z,3.30
2023-05-22T03:54:00.436Z,3.00
2023-05-22T03:57:32.154Z,3.47
2023-05-22T04:01:04.458Z,3.25
2023-05-22T04:04:38.872Z,3.50
2023-05-22T04:08:10.955Z,3.28
2023-05-22T04:11:42.758Z,3.17
2023-05-22T04:15:15.138Z,2.78
2023-05-22T04:18:46.961Z,2.70
2023-05-22T04:22:19.281Z,3.33
2023-05-22T04:25:51.713Z,2.90
2023-05-22T04:29:24.481Z,3.10
2023-05-22T04:32:57.321Z,3.58
2023-05-22T04:36:31.215Z,3.27
2023-05-22T04:40:07.445Z,3.00
2023-05-22T04:43:40.231Z,3.22
2023-05-22T04:47:14.363Z,3.08
2023-05-22T04:50:47.276Z,3.47
2023-05-22T04:54:19.539Z,3.40
2023-05-22T04:57:52.857Z,3.47
2023-05-22T05:01:25.115Z,3.78
2023-05-22T05:04:57.227Z,3.35
2023-05-22T05:08:30.920Z,3.20
2023-05-22T05:12:03.569Z,3.65
2023-05-22T05:15:36.031Z,2.90
2023-05-22T05:19:08.947Z,3.03
2023-05-22T05:22:41.132Z,2.77
2023-05-22T05:26:16.290Z,2.83
2023-05-22T05:29:48.384Z,2.97
2023-05-22T05:33:20.466Z,2.85
2023-05-22T05:36:52.699Z,3.27
2023-05-22T05:40:24.829Z,3.40
2023-05-22T05:44:00.123Z,3.45
2023-05-22T05:47:31.977Z,3.10
2023-05-22T05:51:05.096Z,3.03
2023-05-22T05:54:37.211Z,2.85
2023-05-22T05:58:09.502Z,3.42
2023-05-22T06:01:45.861Z,2.83
2023-05-22T06:05:19.453Z,3.30
2023-05-22T06:08:51.878Z,2.83
2023-05-22T06:12:24.157Z,2.35
2023-05-22T06:15:57.644Z,2.40
2023-05-22T06:19:31.314Z,2.63
2023-05-22T06:23:03.554Z,2.73
2023-05-22T06:26:37.999Z,2.78
2023-05-22T06:30:09.997Z,2.53
2023-05-22T06:33:43.285Z,2.95
2023-05-22T06:37:16.290Z,2.67
2023-05-22T06:40:48.183Z,2.72
2023-05-22T06:44:20.431Z,2.85
2023-05-22T06:47:55.289Z,2.78
2023-05-22T06:51:27.428Z,2.67
2023-05-22T06:55:04.672Z,2.30
2023-05-22T06:58:36.782Z,2.50
2023-05-22T07:02:08.534Z,2.30
2023-05-22T07:05:40.646Z,2.60
2023-05-22T07:09:13.903Z,2.08
2023-05-22T07:12:46.074Z,2.92
2023-05-22T07:16:18.448Z,2.20
2023-05-22T07:19:50.553Z,2.00
2023-05-22T07:23:24.279Z,2.05
2023-05-22T07:26:57.732Z,2.45
2023-05-22T07:30:29.886Z,2.65
2023-05-22T07:34:01.886Z,2.20
2023-05-22T07:37:34.214Z,2.00
2023-05-22T07:41:06.027Z,1.70
2023-05-22T07:44:38.067Z,1.90
2023-05-22T07:48:10.225Z,1.80
2023-05-22T07:51:42.285Z,2.40
2023-05-22T07:55:14.450Z,1.98
2023-05-22T07:58:48.424Z,2.00
2023-05-22T08:02:20.666Z,2.23
2023-05-22T08:05:52.840Z,2.15
2023-05-22T08:09:24.698Z,1.20
2023-05-22T08:12:58.618Z,2.00
2023-05-22T08:16:32.052Z,1.93
2023-05-22T08:20:05.537Z,2.30
2023-05-22T08:23:38.807Z,1.50
2023-05-22T08:27:11.203Z,1.83
2023-05-22T08:30:43.231Z,1.73
2023-05-22T08:34:15.331Z,1.90
2023-05-22T08:37:47.486Z,1.80
2023-05-22T08:41:19.704Z,1.73
2023-05-22T08:44:51.504Z,1.93
2023-05-22T08:48:24.796Z,1.55
2023-05-22T08:52:03.355Z,1.85
2023-05-22T08:55:36.632Z,1.67
2023-05-22T08:59:08.921Z,1.80
2023-05-22T09:02:42.449Z,1.92
2023-05-22T09:06:14.305Z,2.22
2023-05-22T09:09:46.321Z,2.30
2023-05-22T09:13:30.120Z,1.97
2023-05-22T09:17:02.720Z,1.95
2023-05-22T09:20:36.207Z,1.77
2023-05-22T09:24:11.944Z,1.93
2023-05-22T09:27:50.209Z,1.90
2023-05-22T09:31:22.559Z,2.33
2023-05-22T09:34:54.683Z,1.65
2023-05-22T09:38:28.722Z,1.93
2023-05-22T09:42:01.566Z,1.80
2023-05-22T09:45:36.149Z,1.80
2023-05-22T09:49:08.028Z,2.08
2023-05-22T09:52:41.091Z,2.87
2023-05-22T09:56:19.143Z,2.10
2023-05-22T09:59:58.372Z,2.30
2023-05-22T10:03:31.861Z,2.20
2023-05-22T10:07:04.255Z,2.53
2023-05-22T10:10:38.309Z,2.37
2023-05-22T10:14:10.777Z,2.13
2023-05-22T10:17:44.564Z,2.42
2023-05-22T10:21:17.585Z,2.60
2023-05-22T10:24:50.905Z,2.10
2023-05-22T10:28:30.815Z,2.50
2023-05-22T10:32:09.502Z,2.55
2023-05-22T10:35:47.550Z,2.80
2023-05-22T10:39:28.491Z,2.00
2023-05-22T10:43:02.443Z,2.10
2023-05-22T10:46:34.785Z,2.60
2023-05-22T10:50:09.618Z,2.07
2023-05-22T10:53:45.133Z,2.67
2023-05-22T10:57:18.704Z,2.40
2023-05-22T11:01:20.527Z,2.43
2023-05-22T11:04:52.759Z,2.33
2023-05-22T11:08:33.685Z,2.33
2023-05-22T11:12:25.108Z,2.53
2023-05-22T11:15:58.426Z,2.77
2023-05-22T11:19:30.699Z,3.10
2023-05-22T11:23:13.562Z,3.10
2023-05-22T11:27:01.533Z,2.85
2023-05-22T11:30:34.545Z,2.50
2023-05-22T11:34:06.893Z,2.75
2023-05-22T11:37:42.384Z,3.15
2023-05-22T11:41:15.314Z,2.93
2023-05-22T11:44:47.565Z,2.73
2023-05-22T11:48:20.818Z,2.13
2023-05-22T11:51:53.177Z,2.70
2023-05-22T11:55:25.264Z,2.50
2023-05-22T11:58:57.392Z,2.75
2023-05-22T12:02:29.441Z,2.45
2023-05-22T12:06:02.734Z,2.47
2023-05-22T12:09:40.938Z,3.23
2023-05-22T12:13:14.390Z,2.95
2023-05-22T12:16:52.039Z,3.40
2023-05-22T12:20:29.546Z,2.90
2023-05-22T12:24:06.395Z,2.95
2023-05-22T12:27:38.644Z,3.03
2023-05-22T12:31:10.511Z,3.05
2023-05-22T12:34:46.842Z,3.10
2023-05-22T12:38:22.418Z,3.05
2023-05-22T12:41:54.662Z,2.80
2023-05-22T12:45:26.736Z,3.47
2023-05-22T12:48:59.186Z,3.03
2023-05-22T12:52:31.349Z,3.10
2023-05-22T12:56:04.219Z,3.30
2023-05-22T12:59:37.202Z,3.30
2023-05-22T13:03:09.339Z,2.88
2023-05-22T13:06:41.507Z,2.75
2023-05-22T13:10:13.832Z,2.80
2023-05-22T13:13:46.212Z,2.55
2023-05-22T13:17:17.953Z,3.15
2023-05-22T13:20:50.682Z,3.17
2023-05-22T13:24:22.912Z,2.80
2023-05-22T13:27:58.612Z,3.78
2023-05-22T13:31:33.266Z,2.83
2023-05-22T13:35:05.845Z,2.93
2023-05-22T13:38:37.998Z,2.95
2023-05-22T13:42:09.836Z,3.53
2023-05-22T13:45:42.275Z,3.37
2023-05-22T13:49:14.680Z,3.33
2023-05-22T13:52:46.603Z,3.40
2023-05-22T13:56:18.728Z,3.28
2023-05-22T13:59:50.492Z,3.87
2023-05-22T14:03:22.477Z,4.13
2023-05-22T14:06:54.196Z,3.25
2023-05-22T14:10:26.168Z,3.23
2023-05-22T14:13:57.996Z,3.47
2023-05-22T14:17:30.068Z,3.20
2023-05-22T14:21:04.017Z,3.50
2023-05-22T14:24:36.947Z,3.33
2023-05-22T14:28:09.920Z,3.33
2023-05-22T14:31:49.039Z,3.40
2023-05-22T14:35:25.066Z,3.23
2023-05-22T14:38:57.298Z,3.85
2023-05-22T14:42:29.202Z,4.13
2023-05-22T14:46:01.364Z,3.60
2023-05-22T14:49:33.658Z,3.60
2023-05-22T14:53:05.985Z,3.13
2023-05-22T14:56:38.006Z,3.65
2023-05-22T15:00:11.132Z,3.23
2023-05-22T15:03:43.697Z,3.28
2023-05-22T15:07:15.961Z,3.13
2023-05-22T15:10:47.914Z,3.17
2023-05-22T15:14:21.947Z,3.73
2023-05-22T15:17:54.237Z,2.88
2023-05-22T15:21:26.299Z,3.45
2023-05-22T15:25:05.856Z,3.37
2023-05-22T15:28:38.107Z,3.03
2023-05-22T15:32:10.266Z,3.22
2023-05-22T15:35:44.308Z,3.63
2023-05-22T15:39:16.907Z,2.80
2023-05-22T15:42:48.999Z,3.08
2023-05-22T15:46:21.210Z,3.60
2023-05-22T15:49:53.522Z,2.97
2023-05-22T15:53:25.977Z,2.77
2023-05-22T15:56:57.923Z,3.50
2023-05-22T16:00:30.322Z,3.47
2023-05-22T16:04:02.568Z,3.27
2023-05-22T16:07:34.529Z,2.80
2023-05-22T16:11:06.728Z,2.40
2023-05-22T16:14:39.928Z,2.60
2023-05-22T16:18:13.025Z,2.30
2023-05-22T16:21:45.184Z,2.60
2023-05-22T16:25:17.775Z,2.42
2023-05-22T16:29:15.201Z,2.42
2023-05-22T16:32:48.782Z,2.57
2023-05-22T16:36:21.043Z,2.78
2023-05-22T16:39:53.154Z,2.33
2023-05-22T16:43:25.131Z,2.47
2023-05-22T16:46:57.328Z,2.30
2023-05-22T16:50:29.070Z,2.70
2023-05-22T16:54:01.598Z,2.38
2023-05-22T16:57:33.741Z,2.70
2023-05-22T17:01:08.339Z,2.80
2023-05-22T17:04:41.123Z,2.97
2023-05-22T17:08:12.992Z,2.83
2023-05-22T17:11:47.968Z,2.45
2023-05-22T17:15:19.927Z,2.30
2023-05-22T17:18:54.157Z,2.63
2023-05-22T17:22:26.675Z,2.63
2023-05-22T17:25:59.083Z,2.67
2023-05-22T17:29:31.354Z,2.60
2023-05-22T17:33:03.785Z,2.70
2023-05-22T17:36:36.006Z,2.75
2023-05-22T17:40:08.777Z,2.63
2023-05-22T17:43:40.859Z,2.30
2023-05-22T17:47:13.438Z,2.03
2023-05-22T17:50:45.425Z,2.72
2023-05-22T17:54:17.496Z,2.25
2023-05-22T17:57:49.779Z,2.47
2023-05-22T18:01:22.023Z,2.33
2023-05-22T18:04:54.466Z,2.40
2023-05-22T18:08:26.348Z,2.50
2023-05-22T18:12:00.826Z,2.20
2023-05-22T18:15:33.103Z,2.80
2023-05-22T18:19:05.572Z,2.45
2023-05-22T18:22:38.755Z,1.80
2023-05-22T18:26:13.999Z,2.75
2023-05-22T18:29:50.493Z,2.13
2023-05-22T18:33:25.315Z,2.35
2023-05-22T18:36:59.521Z,1.77
2023-05-22T18:40:31.514Z,2.70
2023-05-22T18:44:03.867Z,2.37
2023-05-22T18:47:35.861Z,1.85
2023-05-22T18:51:07.967Z,2.17
2023-05-22T18:54:39.862Z,1.67
2023-05-22T18:58:11.984Z,2.07
2023-05-22T19:01:45.382Z,2.40
2023-05-22T19:05:17.343Z,2.25
2023-05-22T19:08:50.496Z,2.47
2023-05-22T19:12:24.716Z,1.70
2023-05-22T19:15:57.739Z,2.10
2023-05-22T19:19:29.525Z,2.55
2023-05-22T19:23:01.769Z,2.17
2023-05-22T19:26:33.677Z,2.30
2023-05-22T19:30:07.719Z,1.87
2023-05-22T19:33:40.044Z,2.30
2023-05-22T19:37:12.170Z,1.98
2023-05-22T19:40:44.392Z,1.90
2023-05-22T19:44:16.719Z,2.37
2023-05-22T19:47:48.969Z,2.27
2023-05-22T19:51:21.043Z,2.42
2023-05-22T19:54:53.120Z,2.03
2023-05-22T19:58:28.109Z,2.13
2023-05-22T20:02:02.351Z,1.90
2023-05-22T20:05:44.183Z,2.13
2023-05-22T20:09:19.304Z,2.03
2023-05-22T20:12:55.206Z,1.90
2023-05-22T20:16:29.514Z,2.20
2023-05-22T20:20:01.698Z,1.90
2023-05-22T20:23:34.137Z,1.83
2023-05-22T20:27:07.072Z,1.90
2023-05-22T20:30:38.850Z,2.70
2023-05-22T20:34:11.784Z,2.27
2023-05-22T20:37:43.540Z,2.00
2023-05-22T20:41:15.678Z,2.33
2023-05-22T20:44:47.922Z,2.70
2023-05-22T20:48:19.613Z,2.00
2023-05-22T20:51:51.788Z,2.60
2023-05-22T20:55:25.571Z,2.08
2023-05-22T20:58:57.888Z,2.10
2023-05-22T21:02:29.634Z,2.17
2023-05-22T21:06:01.821Z,2.17
2023-05-22T21:09:34.086Z,2.35
2023-05-22T21:13:06.554Z,1.88
2023-05-22T21:16:39.660Z,2.10
2023-05-22T21:20:12.043Z,2.15
2023-05-22T21:23:44.117Z,2.70
2023-05-22T21:27:15.880Z,2.53
2023-05-22T21:30:48.031Z,2.53
2023-05-22T21:34:19.880Z,2.33
2023-05-22T21:37:52.839Z,2.88
2023-05-22T21:41:24.719Z,2.88
2023-05-22T21:44:56.855Z,2.60
2023-05-22T21:48:28.799Z,2.60
2023-05-22T21:52:00.929Z,3.17
2023-05-22T21:55:33.146Z,2.95
2023-05-22T21:59:04.918Z,2.70
2023-05-22T22:02:37.218Z,3.00
2023-05-22T22:06:09.229Z,2.85
2023-05-22T22:09:41.181Z,2.40
2023-05-22T22:18:20.659Z,2.70
2023-05-22T22:21:52.910Z,3.00
2023-05-22T22:25:24.744Z,2.80
2023-05-22T22:28:57.582Z,2.77
2023-05-22T22:32:29.846Z,3.60
2023-05-22T22:36:01.916Z,2.30
2023-05-22T22:39:34.001Z,3.10
2023-05-22T22:43:05.733Z,2.83
2023-05-22T22:46:38.047Z,2.90
2023-05-22T22:50:10.553Z,2.97
2023-05-22T22:53:42.281Z,3.45
2023-05-22T22:57:14.654Z,3.43
2023-05-22T23:00:46.506Z,3.17
2023-05-22T23:04:18.765Z,2.60
2023-05-22T23:07:51.319Z,2.93
2023-05-22T23:11:23.699Z,3.40
2023-05-22T23:14:55.462Z,3.20
2023-05-22T23:18:27.426Z,3.03
2023-05-22T23:21:59.487Z,3.53
2023-05-22T23:25:31.209Z,3.40
2023-05-22T23:29:03.492Z,4.22
2023-05-22T23:32:35.389Z,2.83
2023-05-22T23:36:07.744Z,3.30
2023-05-22T23:39:39.610Z,3.07
2023-05-22T23:43:11.764Z,2.88
2023-05-22T23:46:44.220Z,3.90
2023-05-22T23:50:16.097Z,3.60
2023-05-22T23:53:48.182Z,3.23
2023-05-22T23:57:20.551Z,3.15
